createdAt,value
2022-10-04T00:00:12.555Z,9.20
2022-10-04T00:02:45.253Z,9.20
2022-10-04T00:05:15.255Z,9.10
2022-10-04T00:07:46.607Z,9.10
2022-10-04T00:10:30.191Z,9.10
2022-10-04T00:12:59.046Z,9.00
2022-10-04T00:15:28.338Z,9.00
2022-10-04T00:18:14.554Z,9.00
2022-10-04T00:20:56.170Z,8.90
2022-10-04T00:23:23.594Z,8.90
2022-10-04T00:25:51.717Z,8.90
2022-10-04T00:28:22.097Z,8.90
2022-10-04T00:31:10.353Z,8.80
2022-10-04T00:33:40.595Z,8.80
2022-10-04T00:36:26.544Z,8.80
2022-10-04T00:39:04.969Z,8.80
2022-10-04T00:42:01.811Z,8.80
2022-10-04T00:44:40.935Z,8.80
2022-10-04T00:47:19.283Z,8.70
2022-10-04T00:49:47.437Z,8.60
2022-10-04T00:52:25.865Z,8.60
2022-10-04T00:54:58.662Z,8.60
2022-10-04T00:57:32.157Z,8.50
2022-10-04T01:00:05.575Z,8.50
2022-10-04T01:02:39.586Z,8.40
2022-10-04T01:05:09.713Z,8.40
2022-10-04T01:07:42.688Z,8.40
2022-10-04T01:10:22.045Z,8.40
2022-10-04T01:13:00.298Z,8.30
2022-10-04T01:15:32.358Z,8.30
2022-10-04T01:18:09.483Z,8.30
2022-10-04T01:20:49.095Z,8.30
2022-10-04T01:23:41.230Z,8.30
2022-10-04T01:26:27.330Z,8.30
2022-10-04T01:28:54.917Z,8.20
2022-10-04T01:31:22.304Z,8.20
2022-10-04T01:33:49.660Z,8.20
2022-10-04T01:36:16.908Z,8.20
2022-10-04T01:38:43.720Z,8.10
2022-10-04T01:41:12.396Z,8.00
2022-10-04T01:43:40.563Z,8.00
2022-10-04T01:46:10.540Z,8.00
2022-10-04T01:48:38.247Z,8.00
2022-10-04T01:51:10.931Z,7.90
2022-10-04T01:53:41.701Z,7.90
2022-10-04T01:56:11.507Z,7.90
2022-10-04T01:58:44.312Z,7.90
2022-10-04T02:01:17.898Z,7.90
2022-10-04T02:03:52.822Z,7.90
2022-10-04T02:06:21.188Z,7.80
2022-10-04T02:08:49.959Z,7.80
2022-10-04T02:11:21.887Z,7.80
2022-10-04T02:13:50.611Z,7.70
2022-10-04T02:16:18.410Z,7.70
2022-10-04T02:18:46.269Z,7.70
2022-10-04T02:21:14.014Z,7.70
2022-10-04T02:23:41.991Z,7.70
2022-10-04T02:26:10.055Z,7.70
2022-10-04T02:28:38.018Z,7.70
2022-10-04T02:31:24.386Z,7.70
2022-10-04T02:33:52.776Z,7.70
2022-10-04T02:36:23.623Z,7.70
2022-10-04T02:38:57.522Z,7.70
2022-10-04T02:41:39.730Z,7.70
2022-10-04T02:44:13.712Z,7.70
2022-10-04T02:46:52.948Z,7.60
2022-10-04T02:49:22.858Z,7.60
2022-10-04T02:51:52.546Z,7.70
2022-10-04T02:54:19.378Z,7.60
2022-10-04T02:56:50.920Z,7.60
2022-10-04T02:59:18.751Z,7.60
2022-10-04T03:01:51.324Z,7.60
2022-10-04T03:04:21.522Z,7.60
2022-10-04T03:06:50.292Z,7.60
2022-10-04T03:09:19.254Z,7.60
2022-10-04T03:11:47.762Z,7.70
2022-10-04T03:14:16.044Z,7.60
2022-10-04T03:16:44.995Z,7.60
2022-10-04T03:19:12.408Z,7.70
2022-10-04T03:21:41.211Z,7.70
2022-10-04T03:24:11.920Z,7.70
2022-10-04T03:26:41.535Z,7.70
2022-10-04T03:29:11.149Z,7.70
2022-10-04T03:31:41.379Z,7.70
2022-10-04T03:34:20.499Z,7.70
2022-10-04T03:36:49.421Z,7.80
2022-10-04T03:39:28.266Z,7.80
2022-10-04T03:41:55.568Z,7.80
2022-10-04T03:44:23.587Z,7.80
2022-10-04T03:46:50.506Z,7.80
2022-10-04T03:49:29.644Z,7.80
2022-10-04T03:51:56.774Z,7.80
2022-10-04T03:54:27.935Z,7.90
2022-10-04T03:56:56.190Z,7.90
2022-10-04T03:59:25.087Z,7.90
2022-10-04T04:02:05.284Z,7.90
2022-10-04T04:04:35.780Z,7.90
2022-10-04T04:07:03.639Z,7.90
2022-10-04T04:09:30.754Z,7.90
2022-10-04T04:12:06.958Z,7.90
2022-10-04T04:14:34.285Z,7.90
2022-10-04T04:17:18.665Z,8.00
2022-10-04T04:19:47.064Z,7.90
2022-10-04T04:22:16.609Z,8.00
2022-10-04T04:24:44.965Z,8.00
2022-10-04T04:27:12.597Z,8.00
2022-10-04T04:29:47.075Z,8.10
2022-10-04T04:32:16.817Z,8.10
2022-10-04T04:34:53.401Z,8.10
2022-10-04T04:37:20.791Z,8.10
2022-10-04T04:39:55.696Z,8.10
2022-10-04T04:42:31.861Z,8.10
2022-10-04T04:45:00.759Z,8.10
2022-10-04T04:47:31.953Z,8.10
2022-10-04T04:50:03.358Z,8.20
2022-10-04T04:52:32.340Z,8.20
2022-10-04T04:54:59.849Z,8.30
2022-10-04T04:57:26.750Z,8.30
2022-10-04T04:59:56.047Z,8.30
2022-10-04T05:02:36.232Z,8.30
2022-10-04T05:05:30.912Z,8.30
2022-10-04T05:08:04.989Z,8.30
2022-10-04T05:10:34.915Z,8.30
2022-10-04T05:13:04.449Z,8.30
2022-10-04T05:15:33.490Z,8.40
2022-10-04T05:18:01.610Z,8.40
2022-10-04T05:20:29.425Z,8.40
2022-10-04T05:22:57.404Z,8.40
2022-10-04T05:25:30.944Z,8.40
2022-10-04T05:27:58.768Z,8.40
2022-10-04T05:30:29.286Z,8.40
2022-10-04T05:33:02.270Z,8.40
2022-10-04T05:35:30.032Z,8.40
2022-10-04T05:37:56.867Z,8.40
2022-10-04T05:40:31.637Z,8.40
2022-10-04T05:42:59.650Z,8.50
2022-10-04T05:45:27.715Z,8.50
2022-10-04T05:47:56.299Z,8.50
2022-10-04T05:50:30.225Z,8.50
2022-10-04T05:53:09.769Z,8.60
2022-10-04T05:55:37.677Z,8.60
2022-10-04T05:58:20.786Z,8.60
2022-10-04T06:00:56.949Z,8.60
2022-10-04T06:03:29.709Z,8.60
2022-10-04T06:06:09.707Z,8.60
2022-10-04T06:08:43.739Z,8.70
2022-10-04T06:11:13.498Z,8.70
2022-10-04T06:14:00.149Z,8.80
2022-10-04T06:16:30.154Z,8.80
2022-10-04T06:18:57.252Z,8.80
2022-10-04T06:21:27.192Z,8.90
2022-10-04T06:24:04.812Z,8.90
2022-10-04T06:26:48.303Z,8.90
2022-10-04T06:29:21.904Z,8.90
2022-10-04T06:32:04.769Z,9.00
2022-10-04T06:34:38.503Z,9.00
2022-10-04T06:37:24.248Z,9.00
2022-10-04T06:40:10.764Z,9.10
2022-10-04T06:42:44.665Z,9.10
2022-10-04T06:45:12.507Z,9.20
2022-10-04T06:47:39.241Z,9.20
2022-10-04T06:50:16.357Z,9.30
2022-10-04T06:53:14.262Z,9.30
2022-10-04T06:56:03.525Z,9.40
2022-10-04T06:58:30.234Z,9.50
2022-10-04T07:01:02.503Z,9.60
2022-10-04T07:03:51.452Z,9.60
2022-10-04T07:06:24.672Z,9.70
2022-10-04T07:08:56.110Z,9.80
2022-10-04T07:11:29.172Z,9.80
2022-10-04T07:14:05.711Z,9.90
2022-10-04T07:16:56.557Z,9.90
2022-10-04T07:19:42.244Z,10.00
2022-10-04T07:22:12.858Z,10.10
2022-10-04T07:24:48.850Z,10.20
2022-10-04T07:27:18.342Z,10.30
2022-10-04T07:29:47.089Z,10.40
2022-10-04T07:32:29.033Z,10.40
2022-10-04T07:35:02.728Z,10.40
2022-10-04T07:37:32.864Z,10.40
2022-10-04T07:40:18.375Z,10.50
2022-10-04T07:42:48.391Z,10.70
2022-10-04T07:45:18.518Z,10.80
2022-10-04T07:47:45.964Z,10.80
2022-10-04T07:50:24.632Z,10.90
2022-10-04T07:53:04.823Z,11.00
2022-10-04T07:55:40.478Z,11.10
2022-10-04T07:58:19.495Z,11.30
2022-10-04T08:01:01.699Z,11.40
2022-10-04T08:03:34.964Z,11.40
2022-10-04T08:06:20.480Z,11.60
2022-10-04T08:09:06.010Z,11.70
2022-10-04T08:11:56.614Z,11.70
2022-10-04T08:14:46.502Z,11.80
2022-10-04T08:17:36.791Z,11.90
2022-10-04T08:20:23.603Z,12.00
2022-10-04T08:22:59.827Z,12.10
2022-10-04T08:25:46.307Z,12.20
2022-10-04T08:28:41.496Z,12.30
2022-10-04T08:31:26.756Z,12.40
2022-10-04T08:34:09.024Z,12.50
2022-10-04T08:36:47.978Z,12.60
2022-10-04T08:39:28.804Z,12.60
2022-10-04T08:42:18.959Z,12.70
2022-10-04T08:45:02.522Z,12.70
2022-10-04T08:47:29.487Z,12.80
2022-10-04T08:50:15.167Z,12.90
2022-10-04T08:52:52.076Z,13.00
2022-10-04T08:55:21.050Z,13.10
2022-10-04T08:58:06.791Z,13.20
2022-10-04T09:00:40.075Z,13.30
2022-10-04T09:03:26.725Z,13.30
2022-10-04T09:05:58.900Z,13.50
2022-10-04T09:08:47.215Z,13.50
2022-10-04T09:11:34.744Z,13.60
2022-10-04T09:14:14.469Z,13.70
2022-10-04T09:17:12.670Z,13.80
2022-10-04T09:19:52.166Z,13.90
2022-10-04T09:22:25.555Z,13.90
2022-10-04T09:25:19.287Z,14.00
2022-10-04T09:28:01.450Z,14.20
2022-10-04T09:30:39.578Z,14.40
2022-10-04T09:33:33.564Z,14.50
2022-10-04T09:36:00.903Z,14.60
2022-10-04T09:38:35.467Z,14.70
2022-10-04T09:41:21.502Z,14.80
2022-10-04T09:43:54.682Z,14.90
2022-10-04T09:46:40.727Z,15.10
2022-10-04T09:49:17.054Z,15.20
2022-10-04T09:52:01.751Z,15.30
2022-10-04T09:54:50.262Z,15.40
2022-10-04T09:57:39.777Z,15.40
2022-10-04T10:00:27.956Z,15.50
2022-10-04T10:03:42.482Z,15.50
2022-10-04T10:06:30.596Z,15.60
2022-10-04T10:09:15.855Z,15.60
2022-10-04T10:12:07.490Z,15.60
2022-10-04T10:14:51.874Z,15.70
2022-10-04T10:17:36.746Z,15.80
2022-10-04T10:20:06.781Z,15.90
2022-10-04T10:22:37.188Z,16.00
2022-10-04T10:25:07.298Z,16.20
2022-10-04T10:27:57.842Z,16.20
2022-10-04T10:30:43.709Z,16.30
2022-10-04T10:33:27.623Z,16.30
2022-10-04T10:36:13.347Z,16.40
2022-10-04T10:38:51.418Z,16.60
2022-10-04T10:41:28.816Z,16.70
2022-10-04T10:44:15.262Z,16.80
2022-10-04T10:47:08.887Z,17.10
2022-10-04T10:49:44.435Z,17.20
2022-10-04T10:52:20.384Z,17.20
2022-10-04T10:54:57.359Z,17.20
2022-10-04T10:57:44.685Z,17.30
2022-10-04T11:00:45.726Z,17.40
2022-10-04T11:03:25.378Z,17.60
2022-10-04T11:06:19.696Z,17.50
2022-10-04T11:09:09.737Z,17.60
2022-10-04T11:11:56.445Z,17.70
2022-10-04T11:14:45.268Z,17.70
2022-10-04T11:17:32.919Z,17.70
2022-10-04T11:20:19.174Z,17.70
2022-10-04T11:23:07.925Z,17.60
2022-10-04T11:25:45.671Z,17.40
2022-10-04T11:28:42.410Z,17.30
2022-10-04T11:31:29.244Z,17.30
2022-10-04T11:33:58.578Z,17.10
2022-10-04T11:36:35.596Z,17.20
2022-10-04T11:39:11.883Z,17.20
2022-10-04T11:41:50.995Z,17.10
2022-10-04T11:44:29.278Z,17.00
2022-10-04T11:47:01.202Z,17.00
2022-10-04T11:49:37.539Z,16.90
2022-10-04T11:52:17.967Z,16.80
2022-10-04T11:54:55.666Z,16.70
2022-10-04T11:57:37.705Z,16.70
2022-10-04T12:00:30.567Z,16.60
2022-10-04T12:03:19.815Z,16.60
2022-10-04T12:06:06.218Z,16.70
2022-10-04T12:08:36.512Z,16.60
2022-10-04T12:11:13.008Z,16.60
2022-10-04T12:13:51.709Z,16.50
2022-10-04T12:16:46.839Z,16.50
2022-10-04T12:19:16.760Z,16.50
2022-10-04T12:21:55.458Z,16.50
2022-10-04T12:24:35.428Z,16.50
2022-10-04T12:27:21.358Z,16.40
2022-10-04T12:30:09.878Z,16.40
2022-10-04T12:33:08.151Z,16.40
2022-10-04T12:36:02.843Z,16.40
2022-10-04T12:38:59.878Z,16.40
2022-10-04T12:41:44.463Z,16.40
2022-10-04T12:44:34.493Z,16.40
2022-10-04T12:47:01.598Z,16.40
2022-10-04T12:49:38.517Z,16.40
2022-10-04T12:52:21.003Z,16.40
2022-10-04T12:54:58.458Z,16.40
2022-10-04T12:57:38.028Z,16.50
2022-10-04T13:00:20.447Z,16.50
2022-10-04T13:03:05.462Z,16.40
2022-10-04T13:05:51.833Z,16.40
2022-10-04T13:08:32.410Z,16.40
2022-10-04T13:11:06.118Z,16.40
2022-10-04T13:13:56.695Z,16.30
2022-10-04T13:19:30.502Z,16.40
2022-10-04T13:22:37.593Z,16.40
2022-10-04T13:25:15.759Z,16.40
2022-10-04T13:28:02.901Z,16.40
2022-10-04T13:30:35.498Z,16.40
2022-10-04T13:33:12.468Z,16.40
2022-10-04T13:35:46.911Z,16.40
2022-10-04T13:38:21.035Z,16.40
2022-10-04T13:41:11.319Z,16.30
2022-10-04T13:43:57.393Z,16.40
2022-10-04T13:46:32.489Z,16.30
2022-10-04T13:49:07.599Z,16.30
2022-10-04T13:51:34.650Z,16.30
2022-10-04T13:54:40.719Z,16.30
2022-10-04T13:57:11.019Z,16.30
2022-10-04T14:02:32.059Z,16.10
2022-10-04T14:05:05.697Z,16.10
2022-10-04T14:07:44.772Z,16.00
2022-10-04T14:10:31.070Z,16.10
2022-10-04T14:13:25.055Z,16.10
2022-10-04T14:16:21.908Z,16.10
2022-10-04T14:19:03.944Z,16.10
2022-10-04T14:21:34.543Z,16.20
2022-10-04T14:24:16.279Z,16.10
2022-10-04T14:27:02.034Z,16.10
2022-10-04T14:29:32.691Z,16.10
2022-10-04T14:32:16.369Z,16.10
2022-10-04T18:37:35.112Z,10.90
2022-10-04T18:40:15.273Z,10.80
2022-10-04T18:42:44.852Z,10.80
2022-10-04T18:45:20.955Z,10.80
2022-10-04T18:47:51.476Z,10.80
2022-10-04T18:50:21.381Z,10.70
2022-10-04T18:53:04.002Z,10.60
2022-10-04T18:55:50.427Z,10.60
2022-10-04T18:58:36.494Z,10.60
2022-10-04T19:01:33.201Z,10.60
2022-10-04T19:04:02.212Z,10.60
2022-10-04T19:06:34.531Z,10.60
2022-10-04T19:09:20.016Z,10.50
2022-10-04T19:11:54.008Z,10.50
2022-10-04T19:14:21.236Z,10.50
2022-10-04T19:17:01.577Z,10.50
2022-10-04T19:19:44.229Z,10.50
2022-10-04T19:22:14.311Z,10.50
2022-10-04T19:24:47.850Z,10.50
2022-10-04T19:27:31.395Z,10.50
2022-10-04T19:30:12.407Z,10.40
2022-10-04T19:32:46.288Z,10.40
2022-10-04T19:35:19.190Z,10.30
2022-10-04T19:37:47.124Z,10.30
2022-10-04T19:40:26.999Z,10.20
2022-10-04T19:43:04.005Z,10.30
2022-10-04T19:45:33.826Z,10.20
2022-10-04T19:48:03.383Z,10.20
2022-10-04T19:50:37.491Z,10.20
2022-10-04T19:53:11.714Z,10.20
2022-10-04T19:55:49.390Z,10.20
2022-10-04T19:58:19.278Z,10.10
2022-10-04T20:00:46.666Z,10.10
2022-10-04T20:03:15.192Z,10.10
2022-10-04T20:05:46.887Z,10.10
2022-10-04T20:08:17.238Z,10.10
2022-10-04T20:10:44.297Z,10.10
2022-10-04T20:13:12.601Z,10.10
2022-10-04T20:15:40.178Z,10.10
2022-10-04T20:18:25.791Z,10.10
2022-10-04T20:20:54.443Z,10.10
2022-10-04T20:23:47.841Z,10.10
2022-10-04T20:26:55.851Z,10.10
2022-10-04T20:29:38.255Z,10.10
2022-10-04T20:32:07.003Z,10.10
2022-10-04T20:34:34.121Z,10.10
2022-10-04T20:37:02.517Z,10.00
2022-10-04T20:39:41.860Z,9.90
2022-10-04T20:42:19.843Z,9.90
2022-10-04T20:44:54.758Z,9.90
2022-10-04T20:47:40.391Z,9.90
2022-10-04T20:50:07.681Z,9.90
2022-10-04T20:52:36.733Z,9.90
2022-10-04T20:55:11.876Z,9.90
2022-10-04T20:57:40.605Z,9.90
2022-10-04T21:00:18.156Z,9.90
2022-10-04T21:02:45.067Z,9.90
2022-10-04T21:05:27.433Z,9.90
2022-10-04T21:08:13.861Z,9.90
2022-10-04T21:11:00.857Z,9.80
2022-10-04T21:13:46.621Z,9.80
2022-10-04T21:16:33.027Z,9.80
2022-10-04T21:19:18.832Z,9.80
2022-10-04T21:21:49.706Z,9.80
2022-10-04T21:24:28.885Z,9.80
2022-10-04T21:26:57.165Z,9.70
2022-10-04T21:29:24.247Z,9.60
2022-10-04T21:31:51.130Z,9.70
2022-10-04T21:34:34.826Z,9.70
2022-10-04T21:37:05.327Z,9.70
2022-10-04T21:39:32.218Z,9.60
2022-10-04T21:41:59.370Z,9.50
2022-10-04T21:44:26.172Z,9.60
2022-10-04T21:46:53.678Z,9.60
2022-10-04T21:49:21.064Z,9.70
2022-10-04T21:51:48.159Z,9.60
2022-10-04T21:54:15.328Z,9.50
2022-10-04T21:56:42.129Z,9.60
2022-10-04T21:59:09.157Z,9.60
2022-10-04T22:01:36.262Z,9.60
2022-10-04T22:04:03.041Z,9.60
2022-10-04T22:06:30.224Z,9.60
2022-10-04T22:08:57.348Z,9.60
2022-10-04T22:11:24.375Z,9.60
2022-10-04T22:13:51.284Z,9.50
2022-10-04T22:16:18.686Z,9.50
2022-10-04T22:18:45.467Z,9.50
2022-10-04T22:21:12.713Z,9.50
2022-10-04T22:23:40.763Z,9.50
2022-10-04T22:26:15.567Z,9.40
2022-10-04T22:28:46.254Z,9.40
2022-10-04T22:31:15.109Z,9.40
2022-10-04T22:33:43.447Z,9.40
2022-10-04T22:36:19.514Z,9.40
2022-10-04T22:39:00.539Z,9.40
2022-10-04T22:41:32.068Z,9.40
2022-10-04T22:44:03.109Z,9.40
2022-10-04T22:46:36.531Z,9.30
2022-10-04T22:49:08.727Z,9.30
2022-10-04T22:51:36.234Z,9.30
2022-10-04T22:54:08.504Z,9.40
2022-10-04T22:56:35.306Z,9.30
2022-10-04T22:59:02.528Z,9.30
2022-10-04T23:01:29.927Z,9.30
2022-10-04T23:03:58.017Z,9.30
2022-10-04T23:06:24.747Z,9.20
2022-10-04T23:08:52.083Z,9.20
2022-10-04T23:11:18.940Z,9.20
2022-10-04T23:13:45.851Z,9.20
2022-10-04T23:16:14.680Z,9.20
2022-10-04T23:18:41.800Z,9.20
2022-10-04T23:21:35.639Z,9.20
2022-10-04T23:24:10.453Z,9.20
2022-10-04T23:26:39.624Z,9.20
2022-10-04T23:29:22.055Z,9.20
2022-10-04T23:31:50.094Z,9.20
2022-10-04T23:34:18.895Z,9.20
2022-10-04T23:36:47.464Z,9.20
2022-10-04T23:39:22.177Z,9.20
2022-10-04T23:41:49.080Z,9.20
2022-10-04T23:44:16.116Z,9.20
2022-10-04T23:46:45.103Z,9.20
2022-10-04T23:49:15.878Z,9.20
2022-10-04T23:51:43.836Z,9.30
2022-10-04T23:54:13.206Z,9.30
2022-10-04T23:56:40.745Z,9.30
2022-10-04T23:59:12.978Z,9.30
